Time;durP1;ratioP1;P1;durP2;ratioP2;P2;SDS_P1;SDS_P2;PMS_P1;PMS_P2;Temp;Humidity;BMP_temperature;BMP_pressure;BME280_temperature;BME280_humidity;BME280_pressure;Samples;Min_cycle;Max_cycle;Signal;HPM_P1;HPM_P2
2022/12/20 00:02:02;;;;;;;17.23;12.30;;;10.90;96.70;;;;;;4902438;29;20123;-74
2022/12/20 00:04:30;;;;;;;15.48;12.30;;;10.90;96.70;;;;;;4886919;29;20537;-75
2022/12/20 00:06:58;;;;;;;17.17;13.02;;;10.90;96.70;;;;;;4897616;29;20047;-73
2022/12/20 00:09:26;;;;;;;16.58;13.18;;;10.80;96.70;;;;;;4884910;29;20051;-74
2022/12/20 00:11:54;;;;;;;16.45;12.73;;;10.80;96.70;;;;;;4911987;29;20588;-74
2022/12/20 00:14:24;;;;;;;17.65;13.40;;;10.80;96.70;;;;;;4914687;29;20402;-74
2022/12/20 00:16:52;;;;;;;16.88;13.52;;;10.90;96.70;;;;;;4902077;29;20054;-74
2022/12/20 00:19:20;;;;;;;18.60;13.35;;;10.90;96.70;;;;;;4898541;29;20070;-74
2022/12/20 00:21:48;;;;;;;18.23;14.35;;;10.90;96.70;;;;;;4889887;29;20063;-74
2022/12/20 00:24:16;;;;;;;16.38;13.35;;;10.90;96.70;;;;;;4909022;29;20048;-74
2022/12/20 00:26:52;;;;;;;17.30;14.23;;;10.90;96.70;;;;;;4917885;29;20044;-74
2022/12/20 00:29:20;;;;;;;14.85;12.43;;;10.90;96.70;;;;;;4888928;29;20048;-74
2022/12/20 00:31:50;;;;;;;17.40;13.38;;;10.90;96.70;;;;;;4900457;29;20076;-74
2022/12/20 00:34:18;;;;;;;18.80;13.77;;;10.90;96.70;;;;;;4895272;29;20051;-74
2022/12/20 00:36:46;;;;;;;16.73;13.70;;;10.90;96.70;;;;;;4893831;29;20044;-75
2022/12/20 00:39:14;;;;;;;17.67;13.73;;;10.90;96.70;;;;;;4891803;29;20436;-74
2022/12/20 00:41:43;;;;;;;16.85;12.80;;;10.90;96.70;;;;;;4920885;29;20048;-74
2022/12/20 00:44:13;;;;;;;17.05;13.35;;;10.90;96.70;;;;;;4894936;29;20530;-75
2022/12/20 00:46:41;;;;;;;18.75;14.00;;;10.90;96.70;;;;;;4883684;29;20605;-74
2022/12/20 00:49:11;;;;;;;17.92;13.63;;;10.90;96.70;;;;;;4895044;29;20518;-74
2022/12/20 00:51:39;;;;;;;17.70;13.10;;;10.90;96.70;;;;;;4902877;29;20051;-74
2022/12/20 00:54:07;;;;;;;17.05;12.88;;;10.90;96.70;;;;;;4889062;29;20072;-74
2022/12/20 00:56:35;;;;;;;17.30;12.95;;;10.80;96.70;;;;;;4877025;29;20056;-73
2022/12/20 00:59:03;;;;;;;16.48;11.90;;;10.80;96.70;;;;;;4898786;29;20663;-74
2022/12/20 01:01:35;;;;;;;14.10;12.05;;;10.80;96.70;;;;;;4899015;29;20466;-74
2022/12/20 01:04:04;;;;;;;14.57;11.80;;;10.80;96.70;;;;;;4898014;29;20505;-74
2022/12/20 01:06:36;;;;;;;15.00;11.48;;;10.80;96.70;;;;;;4919419;29;20043;-74
2022/12/20 01:09:04;;;;;;;15.35;12.30;;;10.80;96.70;;;;;;4901973;29;20500;-74
2022/12/20 01:11:36;;;;;;;16.80;11.90;;;10.80;96.70;;;;;;4894996;29;20076;-74
2022/12/20 01:14:06;;;;;;;19.67;12.20;;;10.80;96.70;;;;;;4920326;29;20470;-74
2022/12/20 01:16:36;;;;;;;17.45;11.20;;;10.80;96.70;;;;;;4919428;29;20044;-72
2022/12/20 01:19:06;;;;;;;15.77;11.13;;;10.70;96.70;;;;;;4890909;29;20490;-74
2022/12/20 01:21:35;;;;;;;15.38;11.75;;;10.70;96.70;;;;;;4900140;29;20601;-72
2022/12/20 01:24:04;;;;;;;15.48;11.25;;;10.70;96.70;;;;;;4916098;29;20044;-73
2022/12/20 01:26:32;;;;;;;15.23;10.95;;;10.80;96.70;;;;;;4894255;29;20064;-74
2022/12/20 01:29:00;;;;;;;15.90;11.80;;;10.80;96.70;;;;;;4901933;29;20055;-74
2022/12/20 01:31:30;;;;;;;14.00;10.93;;;10.70;96.70;;;;;;4895877;29;20051;-74
2022/12/20 01:33:59;;;;;;;16.25;11.63;;;10.70;96.70;;;;;;4892302;29;20502;-74
2022/12/20 01:36:28;;;;;;;16.00;10.43;;;10.70;96.70;;;;;;4924825;29;20046;-73
2022/12/20 01:39:00;;;;;;;13.60;10.43;;;10.70;96.70;;;;;;4901910;29;20052;-73
2022/12/20 01:41:30;;;;;;;14.52;11.60;;;10.70;96.70;;;;;;4903724;29;20056;-74
2022/12/20 01:44:00;;;;;;;14.75;10.50;;;10.80;96.70;;;;;;4924614;29;20058;-74
2022/12/20 01:46:30;;;;;;;14.00;10.57;;;10.70;96.70;;;;;;4902509;29;20040;-74
2022/12/20 01:49:04;;;;;;;13.40;10.18;;;10.70;96.70;;;;;;4909449;29;20099;-74
2022/12/20 01:51:36;;;;;;;15.07;11.00;;;10.80;96.70;;;;;;4920492;29;20052;-73
2022/12/20 01:54:11;;;;;;;16.48;11.88;;;10.80;96.70;;;;;;4901819;29;20048;-74
2022/12/20 01:56:44;;;;;;;15.00;10.75;;;10.80;96.70;;;;;;4909532;29;20406;-73
2022/12/20 01:59:13;;;;;;;15.98;11.05;;;10.70;96.70;;;;;;4880583;29;20063;-74
2022/12/20 02:01:41;;;;;;;15.40;11.57;;;10.80;96.70;;;;;;4907320;29;20134;-74
2022/12/20 02:04:12;;;;;;;15.60;10.20;;;10.70;96.70;;;;;;4910166;29;20090;-75
2022/12/20 02:06:44;;;;;;;15.05;10.95;;;10.70;96.70;;;;;;4922406;29;20143;-74
2022/12/20 02:09:14;;;;;;;16.25;10.45;;;10.70;96.70;;;;;;4901826;29;20059;-74
2022/12/20 02:12:05;;;;;;;13.13;10.45;;;10.70;96.70;;;;;;4915881;29;20044;-75
2022/12/20 02:14:53;;;;;;;14.63;10.90;;;10.80;96.70;;;;;;4888749;29;20051;-75
2022/12/20 02:17:30;;;;;;;13.17;9.80;;;10.70;96.70;;;;;;4892356;29;20051;-75
2022/12/20 02:20:31;;;;;;;13.02;10.40;;;10.70;96.70;;;;;;4888257;29;20068;-75
2022/12/20 02:23:38;;;;;;;15.20;10.07;;;10.80;96.70;;;;;;4879116;29;20419;-75
2022/12/20 02:26:31;;;;;;;13.32;10.18;;;10.80;96.70;;;;;;4904491;29;20075;-74
2022/12/20 02:29:14;;;;;;;15.35;9.77;;;10.70;96.70;;;;;;4890897;29;20072;-74
2022/12/20 02:31:49;;;;;;;16.90;10.20;;;10.70;96.70;;;;;;4908503;29;20410;-75
2022/12/20 02:34:20;;;;;;;14.52;9.63;;;10.80;96.70;;;;;;4905590;29;20055;-75
2022/12/20 02:36:49;;;;;;;12.88;9.75;;;10.80;96.70;;;;;;4884595;29;20100;-74
2022/12/20 02:39:17;;;;;;;13.27;10.40;;;10.80;96.70;;;;;;4900631;29;20056;-75
2022/12/20 02:41:49;;;;;;;12.57;10.23;;;10.80;96.70;;;;;;4889389;29;20517;-74
2022/12/20 02:47:12;;;;;;;13.77;9.65;;;10.80;96.70;;;;;;4890112;29;20052;-75
2022/12/20 02:49:43;;;;;;;13.20;9.60;;;10.70;96.70;;;;;;4893116;29;20474;-74
2022/12/20 02:52:13;;;;;;;12.63;8.80;;;10.70;96.70;;;;;;4892817;29;20083;-74
2022/12/20 02:54:41;;;;;;;13.18;9.80;;;10.70;96.70;;;;;;4882253;29;20056;-75
2022/12/20 02:57:16;;;;;;;11.63;9.13;;;10.80;96.70;;;;;;4881267;29;20048;-74
2022/12/20 02:59:49;;;;;;;12.43;9.57;;;10.70;96.70;;;;;;4883722;29;20068;-74
2022/12/20 03:02:19;;;;;;;12.77;9.70;;;10.70;96.70;;;;;;4898300;29;20048;-75
2022/12/20 03:04:48;;;;;;;15.68;11.07;;;10.70;96.70;;;;;;4895019;29;20324;-75
2022/12/20 03:07:16;;;;;;;12.68;9.45;;;10.70;96.70;;;;;;4894761;29;20049;-74
2022/12/20 03:09:44;;;;;;;14.00;10.05;;;10.70;96.70;;;;;;4893537;29;20048;-74
2022/12/20 03:12:15;;;;;;;11.93;9.20;;;10.70;96.70;;;;;;4893931;29;20076;-75
2022/12/20 03:14:43;;;;;;;14.43;8.98;;;10.60;96.70;;;;;;4877073;29;20056;-75
2022/12/20 03:17:13;;;;;;;12.80;8.55;;;10.70;96.70;;;;;;4892472;29;20053;-75
2022/12/20 03:19:43;;;;;;;12.00;8.85;;;10.60;96.70;;;;;;4896351;29;20099;-74
2022/12/20 03:22:11;;;;;;;10.60;8.30;;;10.60;96.70;;;;;;4889119;29;20040;-73
2022/12/20 03:24:39;;;;;;;10.60;8.45;;;10.60;96.70;;;;;;4896941;29;20095;-74
2022/12/20 03:27:11;;;;;;;11.52;8.38;;;10.60;96.70;;;;;;4900580;29;20170;-74
2022/12/20 03:29:39;;;;;;;12.50;8.13;;;10.60;96.70;;;;;;4888934;29;20064;-74
2022/12/20 03:32:07;;;;;;;12.77;7.55;;;10.60;96.70;;;;;;4895684;29;20693;-75
2022/12/20 03:34:37;;;;;;;11.40;8.02;;;10.60;96.70;;;;;;4899776;29;20071;-74
2022/12/20 03:37:07;;;;;;;9.65;7.72;;;10.60;96.70;;;;;;4875562;29;20079;-75
2022/12/20 03:39:35;;;;;;;10.38;8.15;;;10.60;96.70;;;;;;4891570;29;20053;-74
2022/12/20 03:42:04;;;;;;;10.90;8.10;;;10.70;96.70;;;;;;4890598;29;20052;-74
2022/12/20 03:44:32;;;;;;;12.13;8.43;;;10.70;96.70;;;;;;4890753;29;20047;-74
2022/12/20 03:47:00;;;;;;;9.57;8.13;;;10.70;96.70;;;;;;4902321;29;20083;-75
2022/12/20 03:49:28;;;;;;;9.98;7.40;;;10.70;96.70;;;;;;4898916;29;20676;-74
2022/12/20 03:51:57;;;;;;;10.27;8.48;;;10.70;96.70;;;;;;4890778;29;20532;-75
2022/12/20 03:54:26;;;;;;;9.25;7.63;;;10.70;96.70;;;;;;4900622;29;20072;-75
2022/12/20 03:57:06;;;;;;;10.63;7.78;;;10.60;96.70;;;;;;4897161;29;20603;-75
2022/12/20 03:59:42;;;;;;;10.77;8.25;;;10.60;96.70;;;;;;4896198;29;20051;-74
2022/12/20 04:02:14;;;;;;;10.43;7.80;;;10.60;96.70;;;;;;4897253;29;20063;-75
2022/12/20 04:04:43;;;;;;;9.60;7.63;;;10.60;96.70;;;;;;4896556;29;20499;-74
2022/12/20 04:07:11;;;;;;;11.18;7.90;;;10.60;96.70;;;;;;4900860;29;20513;-74
2022/12/20 04:09:45;;;;;;;9.65;7.97;;;10.60;96.70;;;;;;4887282;29;20530;-74
2022/12/20 04:12:15;;;;;;;10.05;7.93;;;10.60;96.70;;;;;;4904417;29;20062;-75
2022/12/20 04:14:43;;;;;;;10.60;7.43;;;10.60;96.70;;;;;;4898278;29;20514;-75
2022/12/20 04:17:12;;;;;;;9.30;7.00;;;10.60;96.70;;;;;;4899537;29;20048;-75
2022/12/20 04:19:41;;;;;;;9.73;7.95;;;10.60;96.70;;;;;;4902577;29;20959;-74
2022/12/20 04:22:09;;;;;;;10.52;7.80;;;10.60;96.70;;;;;;4921732;29;20122;-74
2022/12/20 04:24:54;;;;;;;11.25;7.47;;;10.60;96.70;;;;;;4904506;29;20707;-74
2022/12/20 04:27:30;;;;;;;9.45;7.43;;;10.60;96.70;;;;;;4901240;29;20056;-73
2022/12/20 04:29:59;;;;;;;9.10;7.13;;;10.60;96.70;;;;;;4899284;29;20051;-74
2022/12/20 04:32:27;;;;;;;10.82;8.25;;;10.60;96.70;;;;;;4909678;29;20048;-74
2022/12/20 04:34:56;;;;;;;11.63;8.38;;;10.60;96.70;;;;;;4889741;29;20058;-74
2022/12/20 04:37:24;;;;;;;9.70;7.68;;;10.60;96.70;;;;;;4912154;29;20040;-74
2022/12/20 04:39:55;;;;;;;10.20;7.90;;;10.60;96.70;;;;;;4908053;29;20063;-74
2022/12/20 04:42:27;;;;;;;10.75;7.85;;;10.60;96.70;;;;;;4911273;29;20040;-74
2022/12/20 04:44:55;;;;;;;11.13;7.63;;;10.70;96.70;;;;;;4896125;29;20146;-74
2022/12/20 04:47:27;;;;;;;11.38;7.97;;;10.60;96.70;;;;;;4893323;29;20055;-74
2022/12/20 04:49:55;;;;;;;8.80;7.13;;;10.60;96.70;;;;;;4910790;29;20118;-74
2022/12/20 04:55:16;;;;;;;10.35;7.65;;;10.70;96.70;;;;;;4893434;29;20048;-74
2022/12/20 04:57:44;;;;;;;10.45;8.38;;;10.70;96.70;;;;;;4894998;29;20529;-74
2022/12/20 05:00:14;;;;;;;12.13;8.20;;;10.70;96.70;;;;;;4895747;29;20051;-74
2022/12/20 05:02:45;;;;;;;11.10;7.50;;;10.60;96.70;;;;;;4904253;29;20075;-74
2022/12/20 05:05:17;;;;;;;13.20;8.77;;;10.60;96.70;;;;;;4900310;29;20913;-73
2022/12/20 05:07:50;;;;;;;10.20;7.85;;;10.60;96.70;;;;;;4905935;29;20063;-73
2022/12/20 05:10:20;;;;;;;10.52;8.05;;;10.60;96.70;;;;;;4896646;29;20047;-74
2022/12/20 05:12:49;;;;;;;10.50;7.72;;;10.60;96.70;;;;;;4895206;29;20048;-74
2022/12/20 05:15:28;;;;;;;9.63;7.60;;;10.70;96.70;;;;;;4893683;29;20479;-74
2022/12/20 05:17:58;;;;;;;10.13;8.30;;;10.60;96.70;;;;;;4909221;29;20056;-73
2022/12/20 05:20:33;;;;;;;11.07;8.48;;;10.60;96.70;;;;;;4902637;29;20521;-73
2022/12/20 05:28:40;;;;;;;11.45;8.30;;;10.60;96.70;;;;;;4922275;29;20043;-73
2022/12/20 05:31:08;;;;;;;14.02;8.63;;;10.60;96.70;;;;;;4919797;29;20051;-73
2022/12/20 05:33:36;;;;;;;11.00;8.02;;;10.60;96.70;;;;;;4881785;29;20085;-74
2022/12/20 05:36:05;;;;;;;9.82;7.88;;;10.70;96.70;;;;;;4901089;29;20071;-74
2022/12/20 05:38:34;;;;;;;10.02;8.32;;;10.60;96.70;;;;;;4902887;29;20049;-74
2022/12/20 05:41:07;;;;;;;8.93;7.70;;;10.60;96.70;;;;;;4893936;29;20185;-74
2022/12/20 05:43:35;;;;;;;11.65;7.68;;;10.60;96.70;;;;;;4909507;29;20095;-73
2022/12/20 05:46:04;;;;;;;10.93;8.65;;;10.60;96.70;;;;;;4894272;29;20048;-74
2022/12/20 05:48:42;;;;;;;13.40;7.70;;;10.60;96.70;;;;;;4902280;29;20131;-73
2022/12/20 05:51:10;;;;;;;10.45;8.07;;;10.60;96.70;;;;;;4897816;29;20054;-73
2022/12/20 05:53:55;;;;;;;10.88;7.88;;;10.50;96.70;;;;;;4902132;29;20052;-73
2022/12/20 05:56:40;;;;;;;9.40;7.15;;;10.60;96.70;;;;;;4911685;29;20192;-74
2022/12/20 05:59:09;;;;;;;9.27;7.43;;;10.60;96.70;;;;;;4902109;29;20079;-74
2022/12/20 06:01:39;;;;;;;10.20;8.18;;;10.60;96.70;;;;;;4905825;29;20519;-74
2022/12/20 06:04:07;;;;;;;12.02;8.10;;;10.60;96.70;;;;;;4920003;29;20475;-73
2022/12/20 06:06:35;;;;;;;12.23;7.82;;;10.60;96.70;;;;;;4892106;29;20075;-73
2022/12/20 06:09:03;;;;;;;10.60;8.38;;;10.60;96.70;;;;;;4903653;29;20719;-73
2022/12/20 06:11:38;;;;;;;10.45;8.02;;;10.60;96.70;;;;;;4906224;29;20494;-73
2022/12/20 06:14:13;;;;;;;9.55;8.00;;;10.60;96.70;;;;;;4902290;29;20523;-74
2022/12/20 06:16:45;;;;;;;10.25;8.10;;;10.60;96.70;;;;;;4908531;29;20126;-74
2022/12/20 06:19:17;;;;;;;13.27;9.43;;;10.60;96.70;;;;;;4898517;29;20147;-74
2022/12/20 06:21:51;;;;;;;10.95;8.23;;;10.60;96.70;;;;;;4896345;29;20510;-74
2022/12/20 06:24:28;;;;;;;10.13;8.18;;;10.60;96.70;;;;;;4894386;29;20506;-74
2022/12/20 06:26:57;;;;;;;14.30;9.45;;;10.60;96.70;;;;;;4892517;29;20059;-74
2022/12/20 06:29:27;;;;;;;11.50;8.30;;;10.60;96.70;;;;;;4904125;29;20712;-74
2022/12/20 06:32:04;;;;;;;12.18;9.52;;;10.60;96.70;;;;;;4882928;29;20373;-73
2022/12/20 06:34:32;;;;;;;13.52;8.90;;;10.60;96.70;;;;;;4911503;29;20046;-73
2022/12/20 06:37:01;;;;;;;10.30;7.88;;;10.60;96.70;;;;;;4890277;29;20058;-74
2022/12/20 06:39:32;;;;;;;10.82;8.85;;;10.60;96.70;;;;;;4876377;29;20059;-73
2022/12/20 06:42:05;;;;;;;12.05;8.63;;;10.60;96.70;;;;;;4889262;29;20075;-73
2022/12/20 06:44:36;;;;;;;10.75;8.32;;;10.60;96.70;;;;;;4909914;29;20120;-74
2022/12/20 06:47:04;;;;;;;13.07;8.85;;;10.60;96.70;;;;;;4909784;29;20051;-74
2022/12/20 06:49:32;;;;;;;10.38;8.38;;;10.60;96.70;;;;;;4908664;29;20167;-73
2022/12/20 06:52:05;;;;;;;12.10;8.85;;;10.60;96.70;;;;;;4890752;29;20048;-73
2022/12/20 06:54:48;;;;;;;11.43;8.05;;;10.60;96.70;;;;;;4892318;29;20142;-74
2022/12/20 06:57:16;;;;;;;9.35;8.35;;;10.60;96.70;;;;;;4909379;29;20055;-74
2022/12/20 06:59:48;;;;;;;11.35;8.45;;;10.60;96.70;;;;;;4908897;29;20051;-73
2022/12/20 07:02:17;;;;;;;12.18;9.40;;;10.60;96.70;;;;;;4907905;29;20472;-73
2022/12/20 07:04:46;;;;;;;12.10;9.00;;;10.60;96.70;;;;;;4891053;29;20526;-73
2022/12/20 07:07:13;;;;;;;10.45;9.02;;;10.60;96.70;;;;;;4905658;29;20056;-73
2022/12/20 07:09:42;;;;;;;13.02;9.27;;;10.70;96.70;;;;;;4894016;29;20075;-74
2022/12/20 07:12:10;;;;;;;12.27;8.77;;;10.70;96.70;;;;;;4893599;29;20040;-73
2022/12/20 07:14:38;;;;;;;10.60;9.15;;;10.70;96.70;;;;;;4918970;29;20048;-73
2022/12/20 07:17:08;;;;;;;11.98;9.70;;;10.70;96.70;;;;;;4898923;29;20086;-73
2022/12/20 07:19:36;;;;;;;11.93;9.38;;;10.70;96.70;;;;;;4904041;29;20048;-74
2022/12/20 07:22:04;;;;;;;13.15;9.75;;;10.70;96.70;;;;;;4908448;29;20043;-74
2022/12/20 07:24:33;;;;;;;13.93;9.88;;;10.70;96.70;;;;;;4910047;29;20573;-73
2022/12/20 07:27:01;;;;;;;14.38;9.50;;;10.70;96.70;;;;;;4890267;29;20183;-74
2022/12/20 07:29:29;;;;;;;15.20;9.75;;;10.70;96.70;;;;;;4896137;29;20138;-73
2022/12/20 07:31:57;;;;;;;11.82;8.77;;;10.70;96.70;;;;;;4907330;29;20075;-73
2022/12/20 07:34:26;;;;;;;14.00;9.27;;;10.80;96.70;;;;;;4906069;29;20071;-73
2022/12/20 07:36:54;;;;;;;11.40;8.90;;;10.80;96.70;;;;;;4916390;29;20058;-73
2022/12/20 07:40:11;;;;;;;11.40;9.18;;;10.80;96.70;;;;;;4908819;29;20052;-73
2022/12/20 07:42:39;;;;;;;11.60;7.97;;;10.80;96.70;;;;;;4925959;29;20519;-73
2022/12/20 07:45:15;;;;;;;11.65;8.73;;;10.90;96.70;;;;;;4891379;29;20147;-73
2022/12/20 07:47:42;;;;;;;12.93;8.52;;;10.90;96.70;;;;;;4892216;29;20075;-74
2022/12/20 07:50:12;;;;;;;10.40;8.20;;;10.90;96.70;;;;;;4896181;29;20044;-74
2022/12/20 07:52:42;;;;;;;9.75;8.45;;;10.90;96.70;;;;;;4893522;29;20054;-75
2022/12/20 07:55:11;;;;;;;10.75;8.05;;;11.00;96.70;;;;;;4898365;29;20605;-75
2022/12/20 07:57:41;;;;;;;11.13;8.40;;;10.90;96.70;;;;;;4915801;29;20126;-74
2022/12/20 08:00:11;;;;;;;11.25;8.20;;;11.00;96.70;;;;;;4919126;29;20078;-74
2022/12/20 08:02:43;;;;;;;13.35;9.82;;;11.10;96.70;;;;;;4902534;29;20048;-74
2022/12/20 08:05:13;;;;;;;10.32;8.60;;;11.00;96.70;;;;;;4910669;29;20032;-75
2022/12/20 08:07:42;;;;;;;10.52;8.02;;;11.10;96.70;;;;;;4889454;29;20047;-75
2022/12/20 08:10:13;;;;;;;11.48;9.65;;;11.10;96.70;;;;;;4890389;29;20044;-78
2022/12/20 08:12:42;;;;;;;11.48;8.82;;;11.20;96.70;;;;;;4897869;29;20508;-77
2022/12/20 08:15:10;;;;;;;10.93;8.73;;;11.20;96.70;;;;;;4887386;29;20056;-75
2022/12/20 08:17:38;;;;;;;11.02;8.68;;;11.30;96.70;;;;;;4885167;29;20076;-75
2022/12/20 08:20:07;;;;;;;12.68;9.05;;;11.30;96.70;;;;;;4907269;29;20056;-75
2022/12/20 08:22:37;;;;;;;14.40;10.07;;;11.40;96.70;;;;;;4889406;29;20079;-75
2022/12/20 08:25:06;;;;;;;11.70;10.18;;;11.40;96.70;;;;;;4890209;29;21152;-75
2022/12/20 08:27:34;;;;;;;13.38;10.80;;;11.40;96.70;;;;;;4907551;29;20048;-76
2022/12/20 08:30:02;;;;;;;12.50;10.23;;;11.50;96.70;;;;;;4894651;29;20044;-75
2022/12/20 08:32:30;;;;;;;11.45;9.73;;;11.60;96.70;;;;;;4891559;29;20134;-74
2022/12/20 08:34:58;;;;;;;11.68;9.70;;;11.70;96.70;;;;;;4905162;29;20118;-75
2022/12/20 08:37:26;;;;;;;13.38;9.27;;;11.80;96.70;;;;;;4905108;29;20095;-74
2022/12/20 08:39:55;;;;;;;11.38;9.93;;;11.80;96.70;;;;;;4909076;29;20771;-75
2022/12/20 08:42:23;;;;;;;11.68;9.63;;;11.90;96.70;;;;;;4911520;29;20622;-74
2022/12/20 08:44:51;;;;;;;11.50;9.18;;;11.90;96.70;;;;;;4905185;29;20139;-74
2022/12/20 08:47:20;;;;;;;12.25;9.18;;;11.90;96.70;;;;;;4907794;29;20044;-74
2022/12/20 08:49:47;;;;;;;12.85;9.32;;;12.00;96.70;;;;;;4905871;29;20071;-75
2022/12/20 08:52:16;;;;;;;11.00;9.55;;;12.00;96.70;;;;;;4907612;29;20561;-76
2022/12/20 08:54:43;;;;;;;10.77;8.57;;;12.10;96.70;;;;;;4897645;29;20048;-75
2022/12/20 08:57:13;;;;;;;10.10;8.73;;;12.10;96.70;;;;;;4906399;29;20052;-75
2022/12/20 08:59:40;;;;;;;11.73;9.32;;;12.20;96.70;;;;;;4889100;29;20538;-75
2022/12/20 09:02:08;;;;;;;11.90;8.90;;;12.20;96.70;;;;;;4905792;29;20066;-74
2022/12/20 09:04:36;;;;;;;12.35;10.10;;;12.20;96.70;;;;;;4901540;29;20055;-74
2022/12/20 09:07:04;;;;;;;10.38;9.13;;;12.20;96.70;;;;;;4907563;29;20055;-73
2022/12/20 09:09:32;;;;;;;11.75;9.43;;;12.30;96.70;;;;;;4907577;29;20052;-73
2022/12/20 09:12:00;;;;;;;13.20;9.73;;;12.30;96.70;;;;;;4914458;29;20058;-73
2022/12/20 09:14:29;;;;;;;12.05;8.93;;;12.40;96.70;;;;;;4890884;29;20051;-72
2022/12/20 09:16:57;;;;;;;15.90;9.20;;;12.50;96.70;;;;;;4906320;29;20180;-73
2022/12/20 09:19:25;;;;;;;11.15;9.35;;;12.60;96.70;;;;;;4881945;29;20058;-73
2022/12/20 09:21:54;;;;;;;12.95;10.65;;;12.60;96.70;;;;;;4906092;29;20048;-73
2022/12/20 09:24:25;;;;;;;14.30;12.02;;;12.70;96.70;;;;;;4920934;29;20364;-73
2022/12/20 09:26:52;;;;;;;15.05;12.85;;;12.70;96.70;;;;;;4901092;29;20048;-73
2022/12/20 09:29:20;;;;;;;16.80;12.35;;;12.70;96.70;;;;;;4901252;29;20592;-73
2022/12/20 09:31:57;;;;;;;16.60;11.98;;;12.70;96.70;;;;;;4905050;29;20130;-74
2022/12/20 09:34:26;;;;;;;14.82;12.07;;;12.80;96.70;;;;;;4919247;29;20052;-73
2022/12/20 09:36:54;;;;;;;14.80;11.52;;;12.90;96.70;;;;;;4903637;29;20047;-73
2022/12/20 09:39:21;;;;;;;15.00;11.73;;;13.00;96.70;;;;;;4918936;29;20047;-73
2022/12/20 09:41:49;;;;;;;14.20;11.90;;;13.10;96.70;;;;;;4900062;29;20149;-72
2022/12/20 09:44:20;;;;;;;13.85;10.20;;;13.10;96.70;;;;;;4911230;29;20044;-73
2022/12/20 09:46:53;;;;;;;11.40;9.70;;;13.20;96.70;;;;;;4895158;29;20147;-73
2022/12/20 09:49:28;;;;;;;11.02;9.70;;;13.30;96.70;;;;;;4896612;29;20064;-73
2022/12/20 09:52:18;;;;;;;11.00;9.68;;;13.40;96.70;;;;;;4891732;29;20460;-72
2022/12/20 09:54:57;;;;;;;13.02;10.63;;;13.50;96.70;;;;;;4897813;29;20062;-73
2022/12/20 09:57:38;;;;;;;13.52;9.93;;;13.60;96.70;;;;;;4918037;29;20042;-73
2022/12/20 10:00:13;;;;;;;12.27;10.15;;;13.60;96.70;;;;;;4915435;29;20048;-73
2022/12/20 10:02:41;;;;;;;13.45;10.63;;;13.60;96.70;;;;;;4919706;29;20044;-73
2022/12/20 10:05:38;;;;;;;14.05;10.55;;;13.70;96.70;;;;;;4925794;29;20054;-73
2022/12/20 10:08:19;;;;;;;12.63;10.15;;;13.80;96.70;;;;;;4908974;29;20055;-73
2022/12/20 10:10:55;;;;;;;15.65;11.45;;;13.90;96.70;;;;;;4893082;29;20052;-74
2022/12/20 10:13:50;;;;;;;13.83;10.60;;;13.90;96.70;;;;;;4901739;29;20483;-73
2022/12/20 10:16:32;;;;;;;12.88;10.18;;;14.00;96.70;;;;;;4904446;29;20055;-73
2022/12/20 10:19:13;;;;;;;10.88;9.15;;;14.10;96.70;;;;;;4899039;29;20528;-73
2022/12/20 10:21:49;;;;;;;11.10;9.18;;;14.10;96.70;;;;;;4914265;29;20060;-73
2022/12/20 10:24:19;;;;;;;10.97;8.93;;;14.20;96.70;;;;;;4909777;29;20044;-74
2022/12/20 10:26:49;;;;;;;9.95;7.90;;;14.30;96.70;;;;;;4900952;29;20491;-76
2022/12/20 10:29:17;;;;;;;9.30;7.18;;;14.40;96.70;;;;;;4915990;29;20078;-74
2022/12/20 10:31:45;;;;;;;12.20;8.07;;;14.30;96.70;;;;;;4908676;29;20058;-75
2022/12/20 10:34:14;;;;;;;12.52;9.02;;;14.40;96.70;;;;;;4911151;29;20051;-75
2022/12/20 10:36:43;;;;;;;15.57;12.60;;;14.40;96.70;;;;;;4903139;29;20134;-75
2022/12/20 10:39:11;;;;;;;15.73;13.35;;;14.50;96.70;;;;;;4912983;29;20066;-74
2022/12/20 10:41:50;;;;;;;14.75;9.48;;;14.70;96.70;;;;;;4907172;29;20395;-74
2022/12/20 10:44:24;;;;;;;13.88;9.23;;;14.80;96.70;;;;;;4919136;29;20044;-75
2022/12/20 10:46:55;;;;;;;11.70;8.50;;;15.00;96.70;;;;;;4926939;29;20051;-75
2022/12/20 10:49:31;;;;;;;11.25;7.82;;;15.00;96.70;;;;;;4897582;29;20052;-75
2022/12/20 10:52:03;;;;;;;12.48;9.27;;;15.10;96.70;;;;;;4900638;29;20062;-75
2022/12/20 10:54:34;;;;;;;8.88;6.82;;;15.20;96.70;;;;;;4899194;29;20052;-74
2022/12/20 10:57:13;;;;;;;9.35;5.70;;;15.30;96.70;;;;;;4920109;29;21280;-76
2022/12/20 10:59:44;;;;;;;10.07;6.50;;;15.50;96.70;;;;;;4909612;29;20048;-74
2022/12/20 11:02:26;;;;;;;11.45;7.07;;;15.60;96.70;;;;;;4909767;29;20414;-75
2022/12/20 11:05:20;;;;;;;8.95;5.82;;;15.50;96.70;;;;;;4897447;29;20573;-74
2022/12/20 11:07:55;;;;;;;10.05;6.10;;;15.50;96.70;;;;;;4923861;29;20087;-75
2022/12/20 11:10:44;;;;;;;9.13;6.30;;;15.50;96.70;;;;;;4915112;29;20126;-75
2022/12/20 11:13:21;;;;;;;9.30;6.95;;;15.60;96.70;;;;;;4908158;29;20405;-75
2022/12/20 11:15:50;;;;;;;8.60;6.03;;;15.50;96.70;;;;;;4909517;29;20048;-75
2022/12/20 11:18:29;;;;;;;9.18;6.50;;;15.40;96.70;;;;;;4893888;29;20413;-75
2022/12/20 11:21:17;;;;;;;9.98;5.70;;;15.30;96.70;;;;;;4872984;29;20052;-75
2022/12/20 11:24:05;;;;;;;7.78;4.97;;;15.30;96.70;;;;;;4882987;29;20495;-74
2022/12/20 11:26:47;;;;;;;7.88;5.38;;;15.30;96.70;;;;;;4875740;29;20181;-74
2022/12/20 11:29:39;;;;;;;8.27;5.78;;;15.20;96.70;;;;;;4879406;29;20500;-74
2022/12/20 11:32:19;;;;;;;8.88;5.50;;;15.20;96.70;;;;;;4873679;29;20105;-74
2022/12/20 11:34:58;;;;;;;6.85;5.07;;;15.10;96.70;;;;;;4884195;29;20056;-76
2022/12/20 11:37:29;;;;;;;9.25;6.57;;;15.10;96.70;;;;;;4887452;29;20049;-74
2022/12/20 11:40:26;;;;;;;8.90;5.57;;;15.00;96.70;;;;;;4869119;29;20096;-74
2022/12/20 11:43:09;;;;;;;7.75;4.97;;;14.90;96.70;;;;;;4832797;29;20102;-75
2022/12/20 11:45:48;;;;;;;7.45;4.72;;;14.90;96.70;;;;;;4841508;29;20179;-75
2022/12/20 11:48:34;;;;;;;7.65;4.80;;;14.90;96.70;;;;;;4853460;29;20638;-74
2022/12/20 11:51:05;;;;;;;6.10;4.73;;;14.90;96.70;;;;;;4849735;29;20061;-75
2022/12/20 11:53:47;;;;;;;7.43;3.92;;;14.80;96.70;;;;;;4840721;29;20249;-74
2022/12/20 11:56:20;;;;;;;8.65;4.18;;;14.70;96.70;;;;;;4849196;29;20457;-75
2022/12/20 11:58:53;;;;;;;9.43;5.07;;;14.60;96.70;;;;;;4848442;29;20140;-75
2022/12/20 12:01:25;;;;;;;5.75;3.88;;;14.60;96.70;;;;;;4831974;29;20424;-75
2022/12/20 12:04:03;;;;;;;6.80;4.88;;;14.60;96.70;;;;;;4839474;29;21316;-74
2022/12/20 12:06:35;;;;;;;6.25;4.30;;;14.50;96.70;;;;;;4863681;29;20048;-76
2022/12/20 12:09:14;;;;;;;6.90;4.82;;;14.50;96.70;;;;;;4883260;29;20143;-75
2022/12/20 12:11:49;;;;;;;6.68;4.40;;;14.50;96.70;;;;;;4883493;29;20104;-75
2022/12/20 12:14:45;;;;;;;6.72;4.85;;;14.50;96.70;;;;;;4887475;29;20056;-75
2022/12/20 12:17:23;;;;;;;7.13;3.97;;;14.50;96.70;;;;;;4884975;29;20056;-75
2022/12/20 12:19:54;;;;;;;7.15;5.10;;;14.50;96.70;;;;;;4893990;29;20056;-74
2022/12/20 12:22:28;;;;;;;7.88;5.07;;;14.50;96.70;;;;;;4921181;29;20122;-75
2022/12/20 12:25:00;;;;;;;12.68;8.75;;;14.50;96.70;;;;;;4891654;29;20051;-75
2022/12/20 12:27:29;;;;;;;14.23;9.32;;;14.60;96.70;;;;;;4890959;29;20067;-75
2022/12/20 12:29:58;;;;;;;10.85;6.47;;;14.60;96.70;;;;;;4890599;29;20849;-74
2022/12/20 12:32:31;;;;;;;10.40;6.93;;;14.60;96.70;;;;;;4894830;29;20643;-74
2022/12/20 12:35:12;;;;;;;11.15;7.05;;;14.70;96.70;;;;;;4925192;29;20794;-75
2022/12/20 12:37:59;;;;;;;6.97;3.40;;;14.70;96.70;;;;;;4924688;29;20462;-74
2022/12/20 12:40:59;;;;;;;6.10;4.18;;;14.90;96.70;;;;;;4894540;29;20072;-74
2022/12/20 12:43:50;;;;;;;5.35;2.85;;;15.20;96.70;;;;;;4890529;29;20075;-75
2022/12/20 12:46:25;;;;;;;2.88;1.85;;;15.50;96.70;;;;;;4904769;29;20083;-74
2022/12/20 12:48:58;;;;;;;3.10;1.20;;;15.70;96.70;;;;;;4913523;29;20130;-74
2022/12/20 12:51:31;;;;;;;3.40;1.15;;;16.10;96.70;;;;;;4908997;29;21461;-75
2022/12/20 12:54:16;;;;;;;4.03;1.00;;;16.50;96.70;;;;;;4911615;29;20459;-75
2022/12/20 12:57:02;;;;;;;2.33;0.95;;;16.70;96.70;;;;;;4906561;29;20048;-74
2022/12/20 12:59:52;;;;;;;2.55;0.65;;;16.80;96.70;;;;;;4922274;29;20052;-75
2022/12/20 13:02:47;;;;;;;2.05;0.82;;;16.80;96.70;;;;;;4899348;29;20054;-74
2022/12/20 13:05:34;;;;;;;3.13;1.70;;;16.90;96.70;;;;;;4915193;29;20044;-75
2022/12/20 13:08:03;;;;;;;1.48;0.80;;;16.70;96.70;;;;;;4883944;29;20078;-75
2022/12/20 13:10:57;;;;;;;1.95;0.80;;;16.70;96.70;;;;;;4890456;29;20068;-75
2022/12/20 13:13:25;;;;;;;3.75;0.75;;;16.60;96.70;;;;;;4914915;29;20112;-75
2022/12/20 13:16:32;;;;;;;5.22;3.30;;;16.50;96.70;;;;;;4926363;29;20495;-75